To NAV CANADA Home Page Login to a new session Search on AWWS site Disclaimer Vers la page française équivalente Tips FAQ What's new on the site To the Forecasts and Observations / NOTAM section To "File a Flight Plan" website Publications and other links Update of the User's profile FIC Telephone Numbers My Weather Data Folder Route Weather Data Regional Weather Data Local Weather Data To the Forecasts and Observations / NOTAM section
Request Generated 11/13/2018 at 18:08:39 UTC . Weather information available at that time is displayed.

METAR/TAF

MARYS HARBOUR/NL    (show WxCam)

METAR CYMH 131800Z AUTO 28010G16KT 9SM BKN024 M01/M06 A3004 RMK PRESRR SLP175=
SPECI CYMH 131738Z AUTO 29012KT 9SM SCT024 M01/M06 A3003 RMK SLP170=
SPECI CYMH 131704Z AUTO 29010G18KT 270V330 9SM BKN022 M01/M05 A3001 RMK SLP164=
METAR CYMH 131700Z AUTO 28011G18KT 9SM SCT022 M01/M06 A3001 RMK SLP163=
METAR CYMH 131600Z AUTO 30013G18KT 9SM SCT023 M00/M06 A2999 RMK SLP159=

TAF AMD CYMH 131707Z 1317/1402 30010G20KT P6SM SCT020 TEMPO 1317/1322
BKN020
FM132200 28010KT P6SM SCT160
RMK FCST BASED ON AUTO OBS. NXT FCST BY 132000Z=
Your time UTC time
Weather data provided by Environment Canada and NAV CANADA